createdAt,value
2022-09-05T00:03:39.985Z,4.70
2022-09-05T00:08:58.773Z,4.38
2022-09-05T00:14:13.821Z,4.28
2022-09-05T00:24:20.852Z,4.07
2022-09-05T00:25:30.459Z,4.47
2022-09-05T00:31:08.116Z,4.68
2022-09-05T00:36:10.019Z,5.22
2022-09-05T00:41:15.319Z,4.20
2022-09-05T00:46:24.407Z,3.73
2022-09-05T00:51:35.291Z,5.38
2022-09-05T00:57:01.285Z,5.75
2022-09-05T01:02:13.304Z,6.03
2022-09-05T01:07:38.037Z,6.05
2022-09-05T01:13:07.277Z,6.38
2022-09-05T01:18:36.008Z,6.00
2022-09-05T01:24:04.418Z,6.10
2022-09-05T01:29:19.821Z,5.23
2022-09-05T01:34:31.846Z,6.00
2022-09-05T01:40:14.351Z,5.50
2022-09-05T01:45:21.845Z,5.68
2022-09-05T01:50:43.680Z,4.70
2022-09-05T01:56:22.678Z,4.60
2022-09-05T02:01:33.495Z,4.50
2022-09-05T02:06:44.117Z,4.30
2022-09-05T02:11:53.518Z,4.80
2022-09-05T02:17:07.549Z,5.22
2022-09-05T02:22:35.260Z,5.00
2022-09-05T02:28:05.037Z,5.25
2022-09-05T02:33:15.912Z,5.00
2022-09-05T02:41:57.210Z,4.45
2022-09-05T02:45:16.589Z,5.05
2022-09-05T02:50:53.037Z,5.00
2022-09-05T02:57:34.043Z,5.37
2022-09-05T03:00:20.140Z,5.90
2022-09-05T03:05:29.982Z,6.47
2022-09-05T03:11:14.682Z,6.20
2022-09-05T03:17:05.874Z,6.25
2022-09-05T03:22:49.949Z,5.50
2022-09-05T03:28:33.024Z,5.40
2022-09-05T03:33:58.178Z,5.17
2022-09-05T03:39:45.811Z,5.40
2022-09-05T03:45:12.442Z,5.30
2022-09-05T03:57:06.020Z,6.10
2022-09-05T03:57:27.637Z,5.60
2022-09-05T04:05:45.380Z,5.20
2022-09-05T04:08:28.481Z,5.70
2022-09-05T04:12:51.152Z,5.13
2022-09-05T04:18:03.497Z,4.83
2022-09-05T04:23:25.010Z,4.53
2022-09-05T04:28:44.566Z,4.72
2022-09-05T04:34:06.619Z,5.60
2022-09-05T04:39:26.524Z,5.35
2022-09-05T04:44:35.836Z,6.30
2022-09-05T04:49:42.151Z,7.20
2022-09-05T04:54:51.325Z,6.57
2022-09-05T05:04:20.492Z,7.25
2022-09-05T05:06:11.234Z,8.70
2022-09-05T05:17:54.302Z,5.85
2022-09-05T05:18:10.545Z,4.50
2022-09-05T05:21:52.097Z,3.90
2022-09-05T05:27:03.051Z,3.50
2022-09-05T05:32:08.896Z,3.20
2022-09-05T05:37:20.494Z,3.33
2022-09-05T05:42:25.282Z,3.23
2022-09-05T05:47:35.803Z,3.37
2022-09-05T05:53:30.400Z,3.10
2022-09-05T05:59:00.634Z,3.28
2022-09-05T06:04:51.708Z,3.30
2022-09-05T06:14:51.011Z,3.25
2022-09-05T06:16:30.546Z,3.37
2022-09-05T06:22:09.628Z,3.15
2022-09-05T06:27:43.925Z,3.35
2022-09-05T06:33:13.411Z,3.37
2022-09-05T06:38:28.807Z,3.40
2022-09-05T06:43:58.942Z,3.33
2022-09-05T06:49:33.408Z,4.00
2022-09-05T06:55:23.065Z,4.10
2022-09-05T07:00:34.346Z,3.80
2022-09-05T07:05:45.533Z,4.30
2022-09-05T07:10:58.338Z,4.38
2022-09-05T07:16:38.383Z,5.35
2022-09-05T07:21:50.848Z,5.57
2022-09-05T07:26:59.483Z,5.90
2022-09-05T07:32:08.258Z,6.17
2022-09-05T07:37:17.819Z,5.60
2022-09-05T07:42:26.026Z,5.55
2022-09-05T07:47:33.494Z,5.40
2022-09-05T07:56:47.608Z,4.40
2022-09-05T07:58:08.500Z,6.67
2022-09-05T08:03:15.323Z,5.72
2022-09-05T08:08:24.324Z,5.50
2022-09-05T08:13:46.572Z,4.97
2022-09-05T08:18:56.098Z,5.25
2022-09-05T08:24:13.658Z,4.13
2022-09-05T08:29:31.046Z,4.95
2022-09-05T08:34:45.377Z,4.90
2022-09-05T08:39:59.068Z,4.90
2022-09-05T08:46:42.971Z,3.65
2022-09-05T08:51:06.171Z,4.40
2022-09-05T08:56:19.105Z,3.97
2022-09-05T09:01:31.566Z,4.70
2022-09-05T09:07:50.637Z,4.40
2022-09-05T09:13:06.944Z,3.30
2022-09-05T09:18:15.121Z,3.10
2022-09-05T09:23:38.784Z,3.25
2022-09-05T09:28:51.796Z,2.70
2022-09-05T09:34:09.361Z,2.95
2022-09-05T09:39:38.693Z,2.63
2022-09-05T09:45:27.809Z,2.70
2022-09-05T09:50:58.105Z,2.50
2022-09-05T09:56:18.019Z,2.30
2022-09-05T10:01:36.620Z,2.10
2022-09-05T10:11:09.343Z,2.20
2022-09-05T10:13:35.264Z,2.00
2022-09-05T10:18:57.761Z,1.95
2022-09-05T10:24:34.997Z,1.80
2022-09-05T10:29:57.040Z,1.70
2022-09-05T10:35:23.358Z,1.48
2022-09-05T10:40:30.857Z,1.50
2022-09-05T10:45:56.816Z,1.60
2022-09-05T10:51:06.009Z,1.60
2022-09-05T10:56:14.573Z,1.70
2022-09-05T11:02:24.704Z,1.70
2022-09-05T11:07:09.208Z,1.77
2022-09-05T11:12:28.295Z,1.58
2022-09-05T11:17:38.634Z,1.65
2022-09-05T11:22:48.403Z,1.50
2022-09-05T11:27:54.869Z,1.60
2022-09-05T11:36:29.646Z,1.60
2022-09-05T11:40:08.284Z,1.20
2022-09-05T11:45:36.970Z,1.20
2022-09-05T11:50:53.659Z,1.20
2022-09-05T11:56:10.915Z,1.25
2022-09-05T12:01:42.018Z,1.20
2022-09-05T12:07:29.801Z,1.20
2022-09-05T12:12:41.948Z,1.15
2022-09-05T12:17:58.397Z,1.17
2022-09-05T12:23:06.793Z,1.10
2022-09-05T12:29:26.634Z,1.07
2022-09-05T12:36:04.557Z,1.10
2022-09-05T12:40:57.037Z,1.00
2022-09-05T12:45:09.164Z,1.00
2022-09-05T12:50:17.898Z,1.08
2022-09-05T12:55:27.181Z,0.93
2022-09-05T13:03:07.058Z,0.90
2022-09-05T13:06:25.151Z,1.00
2022-09-05T13:15:03.095Z,1.00
2022-09-05T13:17:02.417Z,0.90
2022-09-05T13:22:08.731Z,1.03
2022-09-05T13:27:16.261Z,0.90
2022-09-05T13:38:04.874Z,2.00
2022-09-05T13:43:30.061Z,1.10
2022-09-05T13:54:27.080Z,1.10
2022-09-05T13:59:41.202Z,1.10
2022-09-05T14:05:20.994Z,1.40
2022-09-05T14:10:55.566Z,1.10
2022-09-05T14:16:01.841Z,1.10
2022-09-05T14:21:19.430Z,1.33
2022-09-05T14:26:28.079Z,0.90
2022-09-05T14:37:37.483Z,1.20
2022-09-05T14:37:50.985Z,1.20
2022-09-05T14:43:02.946Z,1.40
2022-09-05T14:48:33.340Z,1.30
2022-09-05T15:02:43.687Z,1.10
2022-09-05T15:04:44.421Z,1.10
2022-09-05T15:12:16.059Z,1.10
2022-09-05T15:15:31.660Z,1.20
2022-09-05T15:20:37.183Z,1.10
2022-09-05T15:25:47.533Z,1.25
2022-09-05T15:30:58.861Z,1.20
2022-09-05T15:36:03.749Z,2.67
2022-09-05T15:41:24.846Z,0.93
2022-09-05T15:46:38.837Z,1.10
2022-09-05T15:51:46.494Z,1.30
2022-09-05T15:56:52.909Z,1.20
2022-09-05T16:01:59.494Z,1.23
2022-09-05T16:10:30.608Z,1.08
2022-09-05T16:23:17.444Z,1.20
2022-09-05T16:23:40.490Z,1.00
2022-09-05T16:28:49.542Z,1.10
2022-09-05T16:33:53.719Z,1.00
2022-09-05T16:39:02.408Z,1.10
2022-09-05T16:44:16.135Z,1.10
2022-09-05T16:49:41.666Z,0.98
2022-09-05T16:54:51.094Z,0.98
2022-09-05T16:59:56.735Z,1.10
2022-09-05T17:05:11.493Z,0.93
2022-09-05T17:10:19.262Z,1.17
2022-09-05T17:15:29.617Z,1.33
2022-09-05T17:20:35.752Z,1.33
2022-09-05T17:29:33.146Z,1.20
2022-09-05T17:31:50.950Z,1.10
2022-09-05T17:36:42.442Z,1.30
2022-09-05T17:42:03.271Z,1.10
2022-09-05T17:47:14.628Z,1.38
2022-09-05T17:52:23.873Z,1.63
2022-09-05T17:57:41.451Z,1.92
2022-09-05T18:02:56.794Z,1.65
2022-09-05T18:08:00.362Z,1.67
2022-09-05T18:13:32.554Z,3.60
2022-09-05T18:19:28.402Z,2.00
2022-09-05T18:24:05.188Z,2.10
2022-09-05T18:29:57.588Z,2.25
2022-09-05T18:35:36.996Z,1.97
2022-09-05T18:41:01.584Z,3.33
2022-09-05T18:46:14.321Z,6.32
2022-09-05T18:51:24.132Z,7.32
2022-09-05T18:56:33.185Z,5.80
2022-09-05T19:01:41.008Z,10.20
2022-09-05T19:06:49.314Z,4.77
2022-09-05T19:11:58.070Z,3.67
2022-09-05T19:17:31.918Z,2.80
2022-09-05T19:23:10.779Z,2.00
2022-09-05T19:30:19.352Z,2.10
2022-09-05T19:36:59.988Z,1.70
2022-09-05T19:41:36.821Z,1.87
2022-09-05T19:47:38.728Z,2.58
2022-09-05T19:50:01.174Z,2.28
2022-09-05T19:55:20.564Z,1.83
2022-09-05T20:00:25.519Z,2.05
2022-09-05T20:05:29.168Z,2.00
2022-09-05T20:10:35.942Z,1.88
2022-09-05T20:15:39.813Z,1.77
2022-09-05T20:20:51.972Z,1.75
2022-09-05T20:25:58.244Z,1.88
2022-09-05T20:31:05.016Z,1.90
2022-09-05T20:43:29.306Z,1.70
2022-09-05T20:43:32.708Z,1.65
2022-09-05T20:51:24.966Z,1.83
2022-09-05T20:54:26.768Z,1.97
2022-09-05T20:58:11.025Z,2.40
2022-09-05T21:03:26.079Z,2.37
2022-09-05T21:08:33.935Z,2.20
2022-09-05T21:13:52.488Z,2.10
2022-09-05T21:18:56.596Z,2.40
2022-09-05T21:24:18.082Z,2.20
2022-09-05T21:29:32.721Z,2.30
2022-09-05T21:34:45.423Z,2.43
2022-09-05T21:39:59.580Z,2.20
2022-09-05T21:47:42.728Z,2.70
2022-09-05T21:50:32.906Z,2.92
2022-09-05T21:59:16.153Z,2.70
2022-09-05T22:01:01.456Z,2.70
2022-09-05T22:06:07.534Z,2.72
2022-09-05T22:11:13.460Z,2.90
2022-09-05T22:16:18.177Z,2.72
2022-09-05T22:21:34.131Z,3.05
2022-09-05T22:27:11.515Z,3.10
2022-09-05T22:32:08.418Z,3.00
2022-09-05T22:37:16.342Z,3.13
2022-09-05T22:42:19.646Z,3.60
2022-09-05T22:47:26.154Z,3.60
2022-09-05T22:52:29.593Z,3.20
2022-09-05T22:57:32.842Z,3.85
2022-09-05T23:02:37.559Z,4.30
2022-09-05T23:07:40.822Z,3.90
2022-09-05T23:12:44.133Z,4.22
2022-09-05T23:17:54.256Z,4.47
2022-09-05T23:22:58.407Z,4.87
2022-09-05T23:28:06.192Z,4.78
2022-09-05T23:33:11.809Z,4.85
2022-09-05T23:38:15.075Z,4.53
2022-09-05T23:43:18.534Z,4.97
2022-09-05T23:48:23.385Z,5.43
2022-09-05T23:53:26.888Z,5.00
2022-09-05T23:58:31.168Z,4.90
